createdAt,value
2022-12-16T00:01:28.630Z,97898.16
2022-12-16T00:04:17.574Z,97905.13
2022-12-16T00:07:04.073Z,97901.00
2022-12-16T00:09:50.720Z,97885.59
2022-12-16T00:12:37.993Z,97902.13
2022-12-16T00:15:24.121Z,97902.28
2022-12-16T00:18:10.281Z,97908.31
2022-12-16T00:20:56.735Z,97902.50
2022-12-16T00:23:43.042Z,97909.47
2022-12-16T00:26:31.143Z,97902.19
2022-12-16T00:29:18.466Z,97906.78
2022-12-16T00:32:05.006Z,97912.31
2022-12-16T00:34:51.625Z,97910.84
2022-12-16T00:37:38.064Z,97897.00
2022-12-16T00:40:24.255Z,97909.63
2022-12-16T00:43:10.994Z,97924.81
2022-12-16T00:45:57.396Z,97929.16
2022-12-16T00:48:44.078Z,97924.06
2022-12-16T00:51:30.430Z,97928.09
2022-12-16T00:54:16.548Z,97930.28
2022-12-16T00:57:03.062Z,97910.69
2022-12-16T00:59:49.269Z,97947.41
2022-12-16T01:02:35.817Z,97949.44
2022-12-16T01:05:26.843Z,97955.44
2022-12-16T01:08:13.200Z,97952.56
2022-12-16T01:11:00.031Z,97950.44
2022-12-16T01:13:46.954Z,97945.47
2022-12-16T01:16:35.095Z,97953.38
2022-12-16T01:19:21.445Z,97941.94
2022-12-16T01:22:07.656Z,97958.09
2022-12-16T01:24:54.907Z,97956.28
2022-12-16T01:27:41.716Z,97958.00
2022-12-16T01:30:27.998Z,97943.28
2022-12-16T01:33:14.170Z,97964.63
2022-12-16T01:36:02.286Z,97962.41
2022-12-16T01:38:48.981Z,97953.69
2022-12-16T01:41:35.190Z,97955.25
2022-12-16T01:44:24.253Z,97964.69
2022-12-16T01:47:20.741Z,97965.25
2022-12-16T01:50:14.785Z,97970.81
2022-12-16T01:53:04.665Z,97976.00
2022-12-16T01:55:53.329Z,97984.38
2022-12-16T01:58:41.646Z,97965.16
2022-12-16T02:01:28.424Z,97980.09
2022-12-16T02:04:14.784Z,97974.66
2022-12-16T02:07:01.534Z,97999.66
2022-12-16T02:09:48.249Z,97987.91
2022-12-16T02:12:46.465Z,98000.38
2022-12-16T02:15:54.243Z,97990.78
2022-12-16T02:18:51.779Z,98005.66
2022-12-16T02:21:56.676Z,98000.66
2022-12-16T02:25:01.305Z,97992.38
2022-12-16T02:28:11.330Z,97991.72
2022-12-16T02:31:00.578Z,97989.19
2022-12-16T02:34:13.328Z,97992.63
2022-12-16T02:37:23.620Z,98002.56
2022-12-16T02:40:36.122Z,97997.66
2022-12-16T02:43:48.620Z,97995.44
2022-12-16T02:46:40.766Z,97978.22
2022-12-16T02:49:26.952Z,97999.03
2022-12-16T02:52:14.216Z,98006.69
2022-12-16T02:55:09.076Z,98009.84
2022-12-16T02:58:07.487Z,98013.88
2022-12-16T03:01:13.571Z,98009.66
2022-12-16T03:04:27.673Z,98019.16
2022-12-16T03:07:17.284Z,98016.97
2022-12-16T03:10:10.645Z,98022.19
2022-12-16T03:12:59.681Z,98018.25
2022-12-16T03:15:48.394Z,98029.66
2022-12-16T03:18:36.555Z,98025.31
2022-12-16T03:21:27.572Z,98036.66
2022-12-16T03:24:14.739Z,98038.53
2022-12-16T03:27:12.775Z,98031.09
2022-12-16T03:30:06.650Z,98031.50
2022-12-16T03:32:58.339Z,98037.88
2022-12-16T03:35:54.439Z,98018.94
2022-12-16T03:38:42.504Z,98039.03
2022-12-16T03:41:31.335Z,98043.22
2022-12-16T03:44:18.483Z,98022.13
2022-12-16T03:47:05.837Z,98042.94
2022-12-16T03:49:52.431Z,98040.41
2022-12-16T03:52:38.676Z,98052.56
2022-12-16T03:55:25.013Z,98050.03
2022-12-16T03:58:11.182Z,98048.38
2022-12-16T04:00:57.604Z,98063.31
2022-12-16T04:03:44.026Z,98058.44
2022-12-16T04:06:30.632Z,98059.22
2022-12-16T04:09:16.761Z,98063.66
2022-12-16T04:12:21.962Z,98061.78
2022-12-16T04:15:27.273Z,98056.22
2022-12-16T04:18:34.927Z,98056.91
2022-12-16T04:21:39.725Z,98075.44
2022-12-16T04:24:28.955Z,98067.94
2022-12-16T04:27:27.907Z,98077.19
2022-12-16T04:30:21.991Z,98077.09
2022-12-16T04:33:30.838Z,98085.69
2022-12-16T04:36:36.207Z,98077.81
2022-12-16T04:40:00.832Z,98085.41
2022-12-16T04:43:05.958Z,98073.63
2022-12-16T04:46:11.175Z,98082.44
2022-12-16T04:49:16.207Z,98084.75
2022-12-16T04:52:21.119Z,98100.81
2022-12-16T04:55:26.914Z,98097.59
2022-12-16T04:58:33.258Z,98111.66
2022-12-16T05:01:38.013Z,98109.38
2022-12-16T05:04:43.335Z,98104.22
2022-12-16T05:07:48.364Z,98126.16
2022-12-16T05:10:53.394Z,98124.69
2022-12-16T05:13:58.349Z,98110.03
2022-12-16T05:17:03.209Z,98124.41
2022-12-16T05:20:08.358Z,98129.41
2022-12-16T05:23:15.267Z,98110.16
2022-12-16T05:26:19.946Z,98137.72
2022-12-16T05:29:24.809Z,98147.00
2022-12-16T05:32:29.542Z,98146.75
2022-12-16T05:35:34.323Z,98145.94
2022-12-16T05:38:39.154Z,98154.16
2022-12-16T05:41:44.001Z,98165.72
2022-12-16T05:44:48.890Z,98159.78
2022-12-16T05:47:53.711Z,98173.31
2022-12-16T05:50:58.484Z,98165.59
2022-12-16T05:54:03.494Z,98175.72
2022-12-16T05:57:08.634Z,98156.66
2022-12-16T06:00:13.764Z,98188.03
2022-12-16T06:03:18.680Z,98194.47
2022-12-16T06:06:23.783Z,98211.00
2022-12-16T06:09:28.637Z,98212.47
2022-12-16T06:12:33.665Z,98209.09
2022-12-16T06:15:38.869Z,98216.28
2022-12-16T06:18:43.581Z,98216.91
2022-12-16T06:21:48.806Z,98216.28
2022-12-16T06:24:53.579Z,98221.50
2022-12-16T06:27:58.338Z,98231.78
2022-12-16T06:31:03.319Z,98233.31
2022-12-16T06:34:08.198Z,98237.75
2022-12-16T06:37:13.065Z,98246.41
2022-12-16T06:40:18.029Z,98251.28
2022-12-16T06:43:22.992Z,98254.91
2022-12-16T06:46:29.059Z,98263.44
2022-12-16T06:49:34.156Z,98279.75
2022-12-16T06:52:39.345Z,98282.84
2022-12-16T06:55:44.192Z,98289.16
2022-12-16T06:58:49.274Z,98289.88
2022-12-16T07:01:54.237Z,98284.22
2022-12-16T07:04:59.299Z,98300.88
2022-12-16T07:08:08.908Z,98302.06
2022-12-16T07:11:17.096Z,98302.38
2022-12-16T07:14:22.344Z,98320.25
2022-12-16T07:17:27.592Z,98316.75
2022-12-16T07:20:32.436Z,98325.50
2022-12-16T07:23:37.356Z,98327.38
2022-12-16T07:26:41.972Z,98330.66
2022-12-16T07:29:46.766Z,98329.78
2022-12-16T07:32:51.725Z,98338.53
2022-12-16T07:35:56.639Z,98350.38
2022-12-16T07:39:01.950Z,98352.22
2022-12-16T07:42:07.126Z,98365.56
2022-12-16T07:45:12.064Z,98369.78
2022-12-16T07:48:17.141Z,98321.91
2022-12-16T07:51:22.486Z,98368.66
2022-12-16T07:54:27.471Z,98362.91
2022-12-16T07:57:32.501Z,98363.97
2022-12-16T08:00:37.275Z,98375.56
2022-12-16T08:03:42.117Z,98374.53
2022-12-16T08:06:47.466Z,98393.41
2022-12-16T08:09:52.445Z,98385.94
2022-12-16T08:12:57.425Z,98334.16
2022-12-16T08:16:02.307Z,98400.88
2022-12-16T08:19:11.032Z,98341.28
2022-12-16T08:22:16.507Z,98414.22
2022-12-16T08:25:21.312Z,98422.13
2022-12-16T08:28:26.219Z,98428.19
2022-12-16T08:31:30.965Z,98420.28
2022-12-16T08:34:36.269Z,98438.38
2022-12-16T08:37:41.147Z,98444.56
2022-12-16T08:40:46.025Z,98439.91
2022-12-16T08:43:52.866Z,98461.88
2022-12-16T08:46:58.012Z,98462.13
2022-12-16T08:50:03.107Z,98464.16
2022-12-16T08:53:08.149Z,98445.97
2022-12-16T08:56:13.154Z,98470.38
2022-12-16T08:59:18.115Z,98476.25
2022-12-16T09:02:39.973Z,98480.84
2022-12-16T09:05:45.330Z,98483.97
2022-12-16T09:08:50.758Z,98494.97
2022-12-16T09:11:55.972Z,98494.78
2022-12-16T09:15:01.040Z,98490.97
2022-12-16T09:18:13.897Z,98492.81
2022-12-16T09:21:18.838Z,98518.19
2022-12-16T09:24:24.120Z,98512.47
2022-12-16T09:27:29.003Z,98520.41
2022-12-16T09:30:34.086Z,98497.69
2022-12-16T09:33:38.665Z,98514.63
2022-12-16T09:36:43.507Z,98521.88
2022-12-16T09:39:48.277Z,98454.47
2022-12-16T09:43:12.041Z,98529.25
2022-12-16T09:46:29.340Z,98535.50
2022-12-16T09:49:40.574Z,98538.13
2022-12-16T09:52:46.930Z,98538.00
2022-12-16T09:55:58.299Z,98537.25
2022-12-16T09:59:30.319Z,98541.56
2022-12-16T10:02:38.038Z,98531.59
2022-12-16T10:05:53.034Z,98538.94
2022-12-16T10:09:13.367Z,98535.81
2022-12-16T10:12:53.856Z,98537.66
2022-12-16T10:16:30.566Z,98539.38
2022-12-16T10:19:54.163Z,98541.47
2022-12-16T10:23:18.282Z,98544.78
2022-12-16T10:26:38.410Z,98536.00
2022-12-16T10:29:48.287Z,98542.00
2022-12-16T10:33:06.141Z,98543.97
2022-12-16T10:36:13.074Z,98527.94
2022-12-16T10:39:25.503Z,98538.34
2022-12-16T10:42:52.385Z,98542.47
2022-12-16T10:46:04.285Z,98549.13
2022-12-16T10:49:10.601Z,98554.16
2022-12-16T10:52:15.492Z,98557.94
2022-12-16T10:55:52.936Z,98568.09
2022-12-16T10:59:00.688Z,98563.84
2022-12-16T11:02:38.774Z,98570.75
2022-12-16T11:05:46.711Z,98573.69
2022-12-16T11:08:55.486Z,98560.03
2022-12-16T11:12:00.607Z,98563.22
2022-12-16T11:15:29.218Z,98568.59
2022-12-16T11:18:40.079Z,98577.22
2022-12-16T11:21:45.069Z,98568.38
2022-12-16T11:24:50.774Z,98572.78
2022-12-16T11:27:55.698Z,98565.22
2022-12-16T11:31:01.114Z,98571.25
2022-12-16T11:34:07.715Z,98579.97
2022-12-16T11:37:15.560Z,98565.16
2022-12-16T11:40:24.162Z,98584.94
2022-12-16T11:43:32.351Z,98580.81
2022-12-16T11:46:46.491Z,98583.94
2022-12-16T11:49:52.183Z,98589.88
2022-12-16T11:52:58.010Z,98591.38
2022-12-16T11:56:14.013Z,98601.31
2022-12-16T11:59:24.605Z,98593.50
2022-12-16T12:02:42.611Z,98612.53
2022-12-16T12:05:56.810Z,98617.22
2022-12-16T12:09:23.880Z,98616.31
2022-12-16T12:12:47.662Z,98618.31
2022-12-16T12:16:16.598Z,98623.75
2022-12-16T12:19:32.235Z,98625.03
2022-12-16T12:22:57.743Z,98630.88
2022-12-16T12:26:26.291Z,98628.19
2022-12-16T12:29:38.823Z,98634.22
2022-12-16T12:33:04.546Z,98634.09
2022-12-16T12:36:23.493Z,98628.31
2022-12-16T12:39:34.729Z,98638.91
2022-12-16T12:42:49.704Z,98642.88
2022-12-16T12:46:22.648Z,98644.25
2022-12-16T12:49:44.065Z,98619.72
2022-12-16T12:53:19.567Z,98647.88
2022-12-16T12:56:40.798Z,98647.22
2022-12-16T13:00:02.907Z,98623.41
2022-12-16T13:03:33.348Z,98656.63
2022-12-16T13:06:39.922Z,98663.50
2022-12-16T13:09:51.932Z,98651.28
2022-12-16T13:12:57.263Z,98643.22
2022-12-16T13:16:02.018Z,98637.97
2022-12-16T13:19:09.806Z,98667.41
2022-12-16T13:22:14.821Z,98664.41
2022-12-16T13:25:23.967Z,98664.41
2022-12-16T13:28:59.142Z,98673.03
2022-12-16T13:32:19.880Z,98681.28
2022-12-16T13:35:28.057Z,98682.78
2022-12-16T13:38:38.727Z,98694.91
2022-12-16T13:41:43.370Z,98699.34
2022-12-16T13:45:31.267Z,98705.53
2022-12-16T13:48:51.574Z,98701.94
2022-12-16T13:51:56.211Z,98721.03
2022-12-16T13:55:18.877Z,98707.72
2022-12-16T13:58:40.300Z,98707.47
2022-12-16T14:02:06.698Z,98725.72
2022-12-16T14:05:12.320Z,98729.47
2022-12-16T14:08:17.766Z,98739.53
2022-12-16T14:11:25.599Z,98751.06
2022-12-16T14:14:50.001Z,98756.59
2022-12-16T14:18:11.236Z,98752.34
2022-12-16T14:21:20.537Z,98748.72
2022-12-16T14:24:36.853Z,98746.75
2022-12-16T14:27:43.014Z,98762.41
2022-12-16T14:30:48.973Z,98769.44
2022-12-16T14:33:53.959Z,98777.88
2022-12-16T14:36:59.334Z,98788.34
2022-12-16T14:40:07.515Z,98778.59
2022-12-16T14:43:13.304Z,98788.75
2022-12-16T14:46:18.554Z,98794.47
2022-12-16T14:52:46.009Z,98811.00
2022-12-16T14:56:01.154Z,98811.41
2022-12-16T14:59:24.612Z,98809.41
2022-12-16T15:02:46.224Z,98820.06
2022-12-16T15:05:53.921Z,98814.13
2022-12-16T15:09:13.235Z,98827.59
2022-12-16T15:12:18.271Z,98829.41
2022-12-16T15:15:46.735Z,98831.00
2022-12-16T15:18:57.098Z,98840.47
2022-12-16T15:22:02.476Z,98824.94
2022-12-16T15:25:07.479Z,98838.56
2022-12-16T15:28:14.075Z,98836.41
2022-12-16T15:31:18.842Z,98833.59
2022-12-16T15:35:06.585Z,98852.44
2022-12-16T15:38:28.750Z,98856.13
2022-12-16T15:41:49.802Z,98859.78
2022-12-16T15:44:55.073Z,98858.19
2022-12-16T15:48:00.176Z,98876.59
2022-12-16T15:51:11.404Z,98879.13
2022-12-16T15:54:22.918Z,98876.38
2022-12-16T15:57:50.998Z,98893.06
2022-12-16T16:01:12.532Z,98895.91
2022-12-16T16:04:18.313Z,98875.34
2022-12-16T16:07:35.263Z,98910.41
2022-12-16T16:10:43.508Z,98901.38
2022-12-16T16:13:48.411Z,98905.09
2022-12-16T16:16:53.472Z,98922.19
2022-12-16T16:20:03.216Z,98914.00
2022-12-16T16:23:08.688Z,98926.31
2022-12-16T16:26:14.294Z,98933.28
2022-12-16T16:29:27.288Z,98934.44
2022-12-16T16:32:31.992Z,98945.00
2022-12-16T16:35:37.150Z,98939.91
2022-12-16T16:38:41.976Z,98950.34
2022-12-16T16:41:46.978Z,98959.63
2022-12-16T16:44:51.927Z,98939.56
2022-12-16T16:47:57.086Z,98943.25
2022-12-16T16:51:01.985Z,98957.66
2022-12-16T16:54:07.698Z,98931.25
2022-12-16T16:57:12.409Z,98942.41
2022-12-16T17:00:17.208Z,98979.06
2022-12-16T17:03:22.590Z,98965.00
2022-12-16T17:06:27.599Z,98979.56
2022-12-16T17:09:32.630Z,98979.59
2022-12-16T17:12:42.791Z,98991.78
2022-12-16T17:15:55.249Z,99003.69
2022-12-16T17:19:00.147Z,98995.13
2022-12-16T17:22:04.980Z,99000.25
2022-12-16T17:25:09.897Z,99004.59
2022-12-16T17:28:14.947Z,99017.28
2022-12-16T17:31:19.903Z,99020.78
2022-12-16T17:34:25.413Z,99018.53
2022-12-16T17:37:30.329Z,99023.06
2022-12-16T17:40:49.626Z,99018.78
2022-12-16T17:43:54.268Z,99024.72
2022-12-16T17:46:59.236Z,99019.66
2022-12-16T17:50:04.372Z,99032.50
2022-12-16T17:53:17.026Z,99036.47
2022-12-16T17:56:23.718Z,99040.75
2022-12-16T17:59:28.430Z,99042.19
2022-12-16T18:02:33.611Z,99044.59
2022-12-16T18:05:44.234Z,99044.03
2022-12-16T18:08:51.096Z,99031.16
2022-12-16T18:11:55.937Z,99034.81
2022-12-16T18:15:00.750Z,99060.47
2022-12-16T18:18:09.056Z,99064.75
2022-12-16T18:21:13.826Z,99056.22
2022-12-16T18:24:18.774Z,99074.66
2022-12-16T18:27:23.963Z,99070.72
2022-12-16T18:30:29.484Z,99066.50
2022-12-16T18:33:34.886Z,99066.78
2022-12-16T18:36:39.975Z,99069.06
2022-12-16T18:39:45.148Z,99087.00
2022-12-16T18:42:50.085Z,99080.97
2022-12-16T18:45:57.107Z,99087.19
2022-12-16T18:49:02.356Z,99086.41
2022-12-16T18:52:07.533Z,99081.97
2022-12-16T18:55:15.483Z,99106.19
2022-12-16T18:58:50.929Z,99102.84
2022-12-16T19:01:57.583Z,99109.66
2022-12-16T19:05:02.758Z,99107.94
2022-12-16T19:08:11.200Z,99116.94
2022-12-16T19:11:29.990Z,99124.53
2022-12-16T19:14:54.640Z,99119.34
2022-12-16T19:17:59.807Z,99121.41
2022-12-16T19:21:14.383Z,99141.44
2022-12-16T19:24:19.365Z,99136.28
2022-12-16T19:27:24.328Z,99136.53
2022-12-16T19:30:29.318Z,99156.06
2022-12-16T19:33:35.907Z,99162.72
2022-12-16T19:36:45.321Z,99161.47
2022-12-16T19:39:51.843Z,99160.56
2022-12-16T19:42:57.087Z,99164.13
2022-12-16T19:46:02.242Z,99169.13
2022-12-16T19:49:06.970Z,99164.53
2022-12-16T19:52:11.684Z,99179.34
2022-12-16T19:55:17.775Z,99182.50
2022-12-16T19:58:22.855Z,99195.03
2022-12-16T20:01:28.481Z,99190.38
2022-12-16T20:04:33.501Z,99191.69
2022-12-16T20:07:38.245Z,99206.19
2022-12-16T20:10:43.197Z,99210.06
2022-12-16T20:13:48.470Z,99216.25
2022-12-16T20:16:53.364Z,99210.88
2022-12-16T20:19:58.485Z,99219.28
2022-12-16T20:23:03.442Z,99232.72
2022-12-16T20:26:16.801Z,99242.53
2022-12-16T20:29:21.879Z,99232.47
2022-12-16T20:32:26.790Z,99237.75
2022-12-16T20:35:39.245Z,99236.56
2022-12-16T20:38:43.950Z,99247.13
2022-12-16T20:41:49.234Z,99239.66
2022-12-16T20:44:54.104Z,99247.56
2022-12-16T20:48:01.292Z,99248.13
2022-12-16T20:54:42.126Z,99252.09
2022-12-16T20:57:47.062Z,99254.69
2022-12-16T21:00:51.651Z,99257.06
2022-12-16T21:03:56.979Z,99255.97
2022-12-16T21:07:01.984Z,99251.44
2022-12-16T21:10:06.914Z,99250.59
2022-12-16T21:13:12.175Z,99283.75
2022-12-16T21:16:18.732Z,99244.94
2022-12-16T21:19:27.924Z,99297.38
2022-12-16T21:22:36.178Z,99278.66
2022-12-16T21:25:40.999Z,99276.44
2022-12-16T21:28:46.149Z,99294.41
2022-12-16T21:31:51.103Z,99257.84
2022-12-16T21:34:58.448Z,99307.69
2022-12-16T21:38:03.214Z,99308.81
2022-12-16T21:41:12.122Z,99295.53
2022-12-16T21:44:17.247Z,99317.13
2022-12-16T21:47:22.472Z,99319.78
2022-12-16T21:50:28.211Z,99324.97
2022-12-16T21:53:37.174Z,99327.69
2022-12-16T21:56:42.447Z,99326.03
2022-12-16T21:59:47.450Z,99339.72
2022-12-16T22:02:55.402Z,99311.09
2022-12-16T22:06:01.251Z,99312.38
2022-12-16T22:09:06.240Z,99347.56
2022-12-16T22:12:11.479Z,99356.72
2022-12-16T22:15:16.729Z,99350.56
2022-12-16T22:18:22.146Z,99365.28
2022-12-16T22:21:28.201Z,99383.13
2022-12-16T22:24:33.311Z,99357.97
2022-12-16T22:27:38.497Z,99380.69
2022-12-16T22:30:43.503Z,99385.84
2022-12-16T22:33:48.951Z,99393.72
2022-12-16T22:36:56.677Z,99406.66
2022-12-16T22:40:01.530Z,99399.53
2022-12-16T22:43:07.379Z,99360.50
2022-12-16T22:46:20.888Z,99391.41
2022-12-16T22:49:26.217Z,99407.19
2022-12-16T22:52:32.386Z,99255.22
2022-12-16T22:55:37.817Z,99407.06
2022-12-16T22:58:42.609Z,99417.28
2022-12-16T23:01:47.471Z,99390.50
2022-12-16T23:04:52.828Z,99387.34
2022-12-16T23:07:59.295Z,99407.59
2022-12-16T23:11:14.764Z,99433.97
2022-12-16T23:14:20.672Z,99348.25
2022-12-16T23:17:25.846Z,99431.59
2022-12-16T23:20:33.266Z,99445.94
2022-12-16T23:23:39.993Z,99445.94
2022-12-16T23:26:45.107Z,99442.97
2022-12-16T23:29:51.563Z,99385.31
2022-12-16T23:32:57.246Z,99456.41
2022-12-16T23:36:02.436Z,99392.53
2022-12-16T23:39:07.694Z,99421.31
2022-12-16T23:42:12.669Z,99454.94
2022-12-16T23:45:18.169Z,99455.25
2022-12-16T23:48:25.625Z,99462.81
2022-12-16T23:51:30.391Z,99450.44
2022-12-16T23:54:37.507Z,99382.97
2022-12-16T23:57:56.370Z,99459.16
